FR-0221 weather

Croix De Lognan Heliport
Chamonix, Auvergne-Rhône-Alpes, France

Public forecast

Using degrees Celsius for public forecast. Weather courtesy of forecast.io.

Closest aviation weather report (METAR) to Croix De Lognan Heliport

Closest report is Sion Airport, 21.9 nm (40.5 km) NE. Retrieved 2020/01/18 08:20 UTC (0 seconds ago):

LSGS 180820Z 00000KT 9999 FEW030 01/00 Q1028 R/SNOCLO

Closest aviation forecast (TAF) to Croix De Lognan Heliport

Closest forecast is Annecy-Haute-Savoie-Mont Blanc Airport, 35.1 nm (64.9 km) W. Retrieved 2020/01/18 09:00 UTC (0 seconds ago):

TAF LFLP 180800Z 1809/1909 02004KT CAVOK BECMG 1904/1906 02010KT BECMG 1907/1909 02010G20KT